Data for 12/28/2010

Time Sea-Level Adjusted Pressure Absolute Pressure Temperature Relative Humidity Dew Point   
(mb) (inHg) (mb) (inHg) (C) (F) (%) (C) (F)
00:05 1016 30 845 24.95 -3.5 25.8 48 -12.8 8.9
00:10 1016 30 845 24.95 -3.5 25.8 49 -12.7 9.2
00:15 1016 30 845 24.95 -3.7 25.4 50 -12.6 9.4
00:20 1016 30 845 24.95 -3.7 25.3 50 -12.7 9.1
00:25 1016 30 845 24.95 -3.6 25.6 50 -12.6 9.3
00:30 1016 30 845 24.95 -3.5 25.7 50 -12.6 9.3
00:35 1016 30 845 24.95 -3.5 25.7 50 -12.5 9.5
00:40 1016 30 845 24.95 -3.6 25.6 50 -12.6 9.4
00:45 1015 29.97 845 24.95 -3.5 25.8 49 -12.6 9.3
00:50 1015 29.97 845 24.95 -3.4 25.9 49 -12.6 9.3
00:55 1015 29.97 844 24.92 -3.3 26 49 -12.7 9.2
01:00 1015 29.97 844 24.92 -3.4 25.9 49 -12.5 9.5
01:05 1015 29.97 844 24.92 -3.6 25.6 50 -12.5 9.6
01:10 1015 29.97 844 24.92 -3.9 25 52 -12.3 9.8
01:15 1015 29.97 844 24.92 -4.1 24.6 52 -12.6 9.4
01:20 1015 29.97 844 24.92 -4.2 24.4 52 -12.6 9.3
01:25 1015 29.97 844 24.92 -4.3 24.2 51 -12.9 8.7
01:30 1015 29.97 844 24.92 -3.8 25.1 51 -12.6 9.2
01:35 1014 29.94 844 24.92 -4 24.8 51 -12.8 9
01:40 1014 29.94 844 24.92 -4 24.7 51 -12.8 9
01:45 1014 29.94 844 24.92 -4.1 24.5 51 -12.8 9
01:50 1014 29.94 843 24.89 -4 24.7 50 -13 8.7
01:55 1014 29.94 843 24.89 -3.9 25 51 -12.6 9.3
02:00 1014 29.94 843 24.89 -4.1 24.7 51 -12.7 9.2
02:05 1014 29.94 843 24.89 -4.2 24.5 52 -12.6 9.4
02:10 1014 29.94 843 24.89 -4.1 24.6 51 -12.8 8.9
02:15 1014 29.94 843 24.89 -3.9 24.9 51 -12.6 9.3
02:20 1014 29.94 843 24.89 -4 24.9 52 -12.5 9.5
02:25 1014 29.94 843 24.89 -4 24.8 52 -12.5 9.4
02:30 1014 29.94 843 24.89 -3.9 24.9 51 -12.6 9.3
02:35 1014 29.94 843 24.89 -3.9 25 51 -12.6 9.4
02:40 1014 29.94 843 24.89 -3.9 24.9 51 -12.7 9.2
02:45 1014 29.94 843 24.89 -3.9 25 51 -12.5 9.4
02:50 1014 29.94 843 24.89 -3.9 24.9 53 -12.3 9.9
02:55 1014 29.94 843 24.89 -3.9 24.9 51 -12.6 9.4
03:00 1014 29.94 843 24.89 -3.7 25.3 51 -12.5 9.5
03:05 1014 29.94 843 24.89 -3.5 25.7 50 -12.5 9.6
03:10 1013 29.91 843 24.89 -3.3 26 50 -12.4 9.7
03:15 1013 29.91 843 24.89 -3.3 26 51 -12 10.4
03:20 1013 29.91 843 24.89 -3.3 26 51 -12.1 10.3
03:25 1013 29.91 843 24.89 -3.2 26.3 51 -11.8 10.7
03:30 1013 29.91 843 24.89 -3.1 26.4 51 -11.8 10.7
03:35 1013 29.91 842 24.86 -3.1 26.4 52 -11.6 11.1
03:40 1013 29.91 842 24.86 -3.1 26.5 52 -11.5 11.3
03:45 1013 29.91 842 24.86 -3 26.7 52 -11.4 11.5
03:50 1013 29.91 842 24.86 -2.9 26.8 53 -11.3 11.7
03:55 1013 29.91 842 24.86 -2.8 26.9 53 -11.1 12.1
04:00 1013 29.91 842 24.86 -2.8 27 53 -11 12.3
04:05 1013 29.91 842 24.86 -2.7 27.1 53 -10.9 12.4
04:10 1013 29.91 842 24.86 -2.6 27.3 54 -10.8 12.6
04:15 1013 29.91 842 24.86 -2.6 27.3 54 -10.7 12.8
04:20 1013 29.91 842 24.86 -2.7 27.2 54 -10.7 12.7
04:25 1013 29.91 842 24.86 -2.7 27.1 54 -10.9 12.4
04:30 1013 29.91 842 24.86 -2.6 27.3 53 -10.9 12.4
04:35 1012 29.88 842 24.86 -2.6 27.4 52 -11.2 11.9
04:40 1012 29.88 842 24.86 -2.8 27 52 -11.2 11.8
04:45 1012 29.88 841 24.83 -2.7 27.2 53 -11 12.2
04:50 1012 29.88 841 24.83 -2.7 27.1 52 -11.3 11.7
04:55 1012 29.88 841 24.83 -2.6 27.3 52 -11.1 12.1
05:00 1012 29.88 841 24.83 -2.3 27.8 54 -10.5 13.2
05:05 1012 29.88 841 24.83 -2.2 28 52 -10.8 12.5
05:10 1012 29.88 841 24.83 -2.3 27.8 53 -10.7 12.7
05:15 1012 29.88 841 24.83 -2.5 27.5 54 -10.6 12.9
05:20 1012 29.88 841 24.83 -2.6 27.3 55 -10.6 13
05:25 1012 29.88 841 24.83 -2.6 27.3 55 -10.5 13.1
05:30 1012 29.88 841 24.83 -2.6 27.4 55 -10.5 13.2
05:35 1012 29.88 841 24.83 -2.4 27.7 55 -10.2 13.7
05:40 1012 29.88 841 24.83 -2.1 28.2 55 -10.1 13.9
05:45 1012 29.88 841 24.83 -2.1 28.2 55 -9.9 14.2
05:50 1012 29.88 841 24.83 -2.2 28 56 -9.9 14.2
05:55 1012 29.88 841 24.83 -2.2 28.1 56 -9.7 14.5
06:00 1011 29.85 841 24.83 -2.2 28.1 56 -9.9 14.3
06:05 1011 29.85 841 24.83 -2 28.4 56 -9.8 14.4
06:10 1011 29.85 841 24.83 -1.8 28.7 55 -9.6 14.7
06:15 1011 29.85 841 24.83 -1.8 28.7 56 -9.5 14.9
06:20 1011 29.85 841 24.83 -1.8 28.7 55 -9.6 14.7
06:25 1011 29.85 840 24.81 -1.5 29.3 54 -9.7 14.5
06:30 1011 29.85 840 24.81 -1.4 29.5 54 -9.5 14.9
06:35 1011 29.85 840 24.81 -1.5 29.3 55 -9.4 15.1
06:40 1011 29.85 840 24.81 -1.6 29.1 56 -9.3 15.3
06:45 1011 29.85 840 24.81 -1.7 29 56 -9.4 15.2
06:50 1011 29.85 840 24.81 -1.6 29.2 55 -9.4 15
06:55 1011 29.85 840 24.81 -1.5 29.2 55 -9.3 15.2
07:00 1011 29.85 840 24.81 -1.5 29.3 55 -9.3 15.2
07:05 1011 29.85 840 24.81 -1.3 29.6 55 -9.3 15.2
07:10 1011 29.85 840 24.81 -1 30.1 54 -9.2 15.5
07:15 1011 29.85 840 24.81 -1 30.2 54 -9.1 15.6
07:20 1011 29.85 840 24.81 -1.2 29.8 56 -9 15.8
07:25 1011 29.85 840 24.81 -1.4 29.5 56 -9.1 15.7
07:30 1011 29.85 840 24.81 -1.2 29.8 54 -9.4 15.1
07:35 1011 29.85 840 24.81 -1 30.2 54 -9.2 15.5
07:40 1011 29.85 840 24.81 -0.9 30.4 54 -9.2 15.5
07:45 1010 29.83 840 24.81 -1 30.2 55 -8.9 15.9
07:50 1011 29.85 840 24.81 -1.1 30.1 54 -9.3 15.3
07:55 1011 29.85 840 24.81 -0.8 30.5 53 -9.2 15.5
08:00 1010 29.83 840 24.81 -0.6 30.9 53 -9 15.7
08:05 1010 29.83 840 24.81 -0.5 31.1 52 -9.2 15.5
08:10 1010 29.83 840 24.81 -0.3 31.4 51 -9.2 15.4
08:15 1010 29.83 840 24.81 -0.1 31.9 50 -9.4 15.2
08:20 1010 29.83 839 24.78 0.3 32.6 49 -9.2 15.4
08:25 1010 29.83 839 24.78 0.6 33.1 49 -9 15.9
08:30 1010 29.83 840 24.81 0.7 33.3 50 -8.5 16.7
08:35 1010 29.83 840 24.81 0.5 32.9 51 -8.5 16.7
08:40 1010 29.83 840 24.81 0.5 32.9 51 -8.6 16.6
08:45 1010 29.83 839 24.78 0.3 32.6 51 -8.7 16.4
08:50 1010 29.83 839 24.78 0.3 32.5 51 -8.6 16.4
08:55 1010 29.83 839 24.78 0.3 32.6 51 -8.6 16.5
09:00 1010 29.83 839 24.78 0.3 32.6 53 -8.2 17.2
09:05 1010 29.83 840 24.81 0.3 32.5 52 -8.4 16.8
09:10 1010 29.83 839 24.78 0.4 32.8 51 -8.4 16.8
09:15 1010 29.83 839 24.78 0.7 33.2 51 -8.4 16.9
09:20 1010 29.83 839 24.78 0.7 33.2 52 -8.2 17.2
09:25 1010 29.83 839 24.78 0.7 33.3 52 -8.1 17.3
09:30 1010 29.83 839 24.78 0.9 33.5 50 -8.5 16.7
09:35 1010 29.83 839 24.78 1.3 34.3 49 -8.3 17
09:40 1010 29.83 839 24.78 1.4 34.5 50 -8 17.6
09:45 1010 29.83 839 24.78 1.4 34.5 54 -7 19.4
09:50 1010 29.83 839 24.78 1 33.8 53 -7.6 18.3
09:55 1010 29.83 839 24.78 1 33.8 52 -7.7 18.1
10:00 1010 29.83 839 24.78 1.2 34.2 52 -7.6 18.3
10:05 1009 29.8 839 24.78 1.5 34.6 49 -8.1 17.4
10:10 1009 29.8 839 24.78 2.2 35.9 48 -7.8 17.9
10:15 1009 29.8 839 24.78 2.5 36.4 46 -7.9 17.8
10:20 1009 29.8 839 24.78 2.6 36.7 47 -7.6 18.2
10:25 1009 29.8 839 24.78 2.7 36.9 47 -7.6 18.3
10:30 1009 29.8 839 24.78 2.8 37 48 -7.3 18.9
10:35 1009 29.8 839 24.78 2.8 37.1 46 -7.6 18.2
10:40 1009 29.8 839 24.78 3 37.5 47 -7.1 19.2
10:45 1009 29.8 838 24.75 2.6 36.7 49 -7 19.3
10:50 1009 29.8 838 24.75 2.1 35.7 50 -7.2 19.1
10:55 1009 29.8 838 24.75 1.9 35.5 50 -7.3 18.8
11:00 1009 29.8 838 24.75 2 35.6 50 -7.3 18.8
11:05 1009 29.8 838 24.75 2.1 35.8 50 -7.4 18.7
11:10 1009 29.8 838 24.75 2.4 36.3 49 -7.4 18.7
11:15 1009 29.8 838 24.75 2.7 36.8 47 -7.6 18.3
11:20 1009 29.8 838 24.75 3 37.5 45 -7.7 18.2
11:25 1009 29.8 838 24.75 3.4 38.2 44 -7.6 18.3
11:30 1009 29.8 838 24.75 3.7 38.7 44 -7.5 18.6
11:35 1008 29.77 838 24.75 3.8 38.9 43 -7.7 18.2
11:40 1008 29.77 838 24.75 3.9 39 43 -7.5 18.5
11:45 1008 29.77 837 24.72 4 39.3 43 -7.6 18.4
11:50 1008 29.77 837 24.72 4.1 39.5 43 -7.5 18.6
11:55 1008 29.77 837 24.72 4.2 39.5 44 -7 19.4
12:00 1008 29.77 837 24.72 4.2 39.5 45 -6.9 19.7
12:05 1008 29.77 837 24.72 4.2 39.6 44 -7.1 19.2
12:10 1008 29.77 837 24.72 4.3 39.8 44 -7 19.4
12:15 1008 29.77 837 24.72 4.3 39.8 43 -7.1 19.3
12:20 1008 29.77 837 24.72 4.3 39.7 43 -7.1 19.2
12:25 1008 29.77 837 24.72 4.3 39.7 44 -7 19.4
12:30 1008 29.77 837 24.72 4.3 39.7 44 -6.8 19.7
12:35 1008 29.77 837 24.72 4.5 40.1 43 -6.9 19.5
12:40 1007 29.74 837 24.72 4.5 40 43 -7.2 19.1
12:45 1007 29.74 837 24.72 3.8 38.9 49 -6 21.3
12:50 1007 29.74 837 24.72 3.3 37.9 51 -5.9 21.4
12:55 1007 29.74 836 24.69 3 37.4 53 -5.8 21.6
13:00 1007 29.74 836 24.69 3.1 37.6 52 -5.9 21.4
13:05 1007 29.74 836 24.69 3.1 37.7 52 -5.9 21.4
13:10 1007 29.74 836 24.69 3.1 37.6 52 -5.8 21.5
13:15 1007 29.74 836 24.69 3.1 37.5 51 -6.2 20.8
13:20 1007 29.74 836 24.69 3 37.4 51 -6.1 21
13:25 1007 29.74 836 24.69 3 37.3 50 -6.4 20.5
13:30 1007 29.74 836 24.69 3 37.3 50 -6.6 20.2
13:35 1007 29.74 836 24.69 3.1 37.5 50 -6.4 20.5
13:40 1007 29.74 836 24.69 3 37.4 49 -6.6 20.1
13:45 1007 29.74 836 24.69 2.9 37.3 50 -6.4 20.5
13:50 1007 29.74 836 24.69 3 37.3 48 -6.9 19.6
13:55 1006 29.71 836 24.69 2.9 37.1 49 -6.8 19.7
14:00 1006 29.71 836 24.69 2.9 37.2 49 -6.9 19.6
14:05 1006 29.71 836 24.69 3 37.3 48 -7 19.4
14:10 1006 29.71 835 24.66 2.9 37.3 49 -6.8 19.8
14:15 1006 29.71 835 24.66 2.7 36.9 49 -6.8 19.7
14:20 1006 29.71 835 24.66 2.8 37 49 -6.8 19.7
14:25 1006 29.71 835 24.66 2.8 37 48 -7.1 19.3
14:30 1006 29.71 835 24.66 2.7 36.9 47 -7.6 18.4
14:35 1006 29.71 835 24.66 2.6 36.6 49 -7.1 19.2
14:40 1006 29.71 835 24.66 2.5 36.6 49 -7.1 19.2
14:45 1006 29.71 835 24.66 2.5 36.5 48 -7.5 18.6
14:50 1006 29.71 835 24.66 2.5 36.4 48 -7.4 18.7
14:55 1006 29.71 835 24.66 2.5 36.4 49 -7.3 18.9
15:00 1006 29.71 835 24.66 2.4 36.2 49 -7.4 18.7
15:05 1006 29.71 835 24.66 2.3 36.2 49 -7.4 18.7
15:10 1006 29.71 835 24.66 2.4 36.3 49 -7.3 18.9
15:15 1006 29.71 835 24.66 2.4 36.3 49 -7.3 18.9
15:20 1006 29.71 835 24.66 2.4 36.3 49 -7.2 19.1
15:25 1006 29.71 835 24.66 2.4 36.3 49 -7.4 18.7
15:30 1006 29.71 835 24.66 2.3 36.1 49 -7.4 18.6
15:35 1006 29.71 835 24.66 2.2 36 50 -7.2 19
15:40 1006 29.71 835 24.66 2.2 35.9 50 -7.3 18.9
15:45 1006 29.71 835 24.66 2.1 35.8 50 -7.1 19.1
15:50 1006 29.71 835 24.66 2.1 35.8 50 -7.3 18.8
15:55 1006 29.71 835 24.66 2.1 35.8 50 -7.3 18.8
16:00 1006 29.71 835 24.66 2 35.7 51 -7 19.4
16:05 1006 29.71 835 24.66 2.1 35.7 50 -7.4 18.7
16:10 1006 29.71 835 24.66 2 35.6 51 -7 19.4
16:15 1006 29.71 835 24.66 1.9 35.5 50 -7.3 18.8
16:20 1006 29.71 835 24.66 2 35.5 51 -7.2 19.1
16:25 1005 29.68 835 24.66 2 35.5 51 -7.1 19.2
16:30 1005 29.68 835 24.66 2 35.5 52 -6.8 19.7
16:35 1005 29.68 835 24.66 1.9 35.5 53 -6.7 19.9
16:40 1005 29.68 835 24.66 1.9 35.5 56 -6 21.1
16:45 1005 29.68 835 24.66 1.9 35.4 58 -5.6 22
16:50 1005 29.68 835 24.66 1.9 35.4 60 -5.1 22.8
16:55 1005 29.68 834 24.63 1.8 35.3 62 -4.7 23.6
17:00 1005 29.68 834 24.63 1.8 35.3 63 -4.5 23.8
17:05 1005 29.68 834 24.63 1.8 35.2 64 -4.3 24.2
17:10 1005 29.68 834 24.63 1.7 35.1 64 -4.5 24
17:15 1005 29.68 834 24.63 1.7 35 63 -4.6 23.7
17:20 1005 29.68 834 24.63 1.7 35.1 64 -4.4 24.1
17:25 1005 29.68 834 24.63 1.8 35.2 63 -4.6 23.7
17:30 1005 29.68 834 24.63 1.8 35.3 62 -4.6 23.7
17:35 1005 29.68 834 24.63 1.9 35.5 63 -4.4 24.1
17:40 1005 29.68 834 24.63 1.9 35.4 64 -4.3 24.3
17:45 1005 29.68 834 24.63 1.8 35.3 65 -4.1 24.6
17:50 1005 29.68 834 24.63 1.6 34.9 66 -4.1 24.7
17:55 1005 29.68 834 24.63 1.5 34.7 67 -3.9 25
18:00 1005 29.68 834 24.63 1.3 34.4 67 -4.1 24.6
18:05 1005 29.68 834 24.63 1.4 34.6 66 -4.3 24.2
18:10 1004 29.65 834 24.63 1.5 34.7 65 -4.4 24.1
18:15 1004 29.65 833 24.6 1.6 34.9 65 -4.3 24.3
18:20 1004 29.65 833 24.6 1.6 34.9 65 -4.2 24.4
18:25 1004 29.65 833 24.6 1.6 34.8 66 -4.1 24.5
18:30 1004 29.65 833 24.6 1.6 34.8 65 -4.3 24.3
18:35 1004 29.65 833 24.6 1.6 34.8 66 -4.1 24.5
18:40 1004 29.65 833 24.6 1.6 34.8 67 -4 24.8
18:45 1004 29.65 833 24.6 1.4 34.5 71 -3.3 26.1
18:50 1004 29.65 833 24.6 0.9 33.7 74 -3.2 26.3
18:55 1003 29.62 833 24.6 0.8 33.4 75 -3.1 26.3
19:00 1003 29.62 833 24.6 0.6 33.1 77 -3 26.6
19:05 1003 29.62 832 24.57 0.6 33 77 -3 26.6
19:10 1003 29.62 832 24.57 0.6 33.1 77 -3 26.6
19:15 1003 29.62 832 24.57 0.6 33 77 -3 26.6
19:20 1003 29.62 832 24.57 0.5 33 76 -3.2 26.3
19:25 1003 29.62 832 24.57 0.5 32.9 75 -3.3 26
19:30 1003 29.62 832 24.57 0.5 33 74 -3.5 25.7
19:35 1003 29.62 832 24.57 0.6 33 72 -3.9 25
19:40 1003 29.62 832 24.57 0.7 33.2 71 -4 24.7
19:45 1002 29.59 832 24.57 0.7 33.2 71 -4.1 24.7
19:50 1002 29.59 832 24.57 0.7 33.2 70 -4.1 24.6
19:55 1002 29.59 831 24.54 0.7 33.2 70 -4.2 24.5
20:00 1002 29.59 831 24.54 0.6 33.1 70 -4.2 24.4
20:05 1002 29.59 831 24.54 0.6 33.1 70 -4.3 24.2
20:10 1002 29.59 831 24.54 0.5 32.9 72 -4.1 24.7
20:15 1002 29.59 831 24.54 0.4 32.8 72 -4 24.9
20:20 1002 29.59 831 24.54 0.4 32.7 72 -4.1 24.6
20:25 1002 29.59 831 24.54 0.4 32.7 72 -4.1 24.7
20:30 1002 29.59 831 24.54 0.4 32.8 71 -4.3 24.2
20:35 1001 29.56 831 24.54 0.5 32.8 70 -4.4 24
20:40 1001 29.56 830 24.51 0.4 32.8 68 -4.8 23.4
20:45 1001 29.56 830 24.51 0.4 32.8 64 -5.6 21.9
20:50 1001 29.56 830 24.51 0.5 32.9 65 -5.4 22.3
20:55 1001 29.56 830 24.51 0.3 32.6 65 -5.4 22.3
21:00 1001 29.56 830 24.51 0.3 32.5 66 -5.4 22.2
21:05 1001 29.56 830 24.51 0.3 32.5 66 -5.4 22.2
21:10 1001 29.56 830 24.51 0.3 32.5 65 -5.5 22.1
21:15 1000 29.53 830 24.51 0.2 32.3 65 -5.6 22
21:20 1000 29.53 830 24.51 0.1 32.1 66 -5.6 21.9
21:25 1000 29.53 830 24.51 0.1 32.3 65 -5.6 21.9
21:30 1000 29.53 829 24.48 0.1 32.1 66 -5.6 22
21:35 1000 29.53 829 24.48 0.1 32.1 66 -5.6 21.9
21:40 1000 29.53 829 24.48 0.1 32.1 66 -5.6 22
21:45 1000 29.53 829 24.48 0.1 32.2 66 -5.6 22
21:50 1000 29.53 829 24.48 0.1 32.2 65 -5.6 21.9
21:55 1000 29.53 829 24.48 -0 32 66 -5.6 21.9
22:00 1000 29.53 829 24.48 -0 32 66 -5.5 22
22:05 999 29.5 829 24.48 0.1 32.2 65 -5.7 21.7
22:10 999 29.5 828 24.45 0.2 32.4 64 -5.7 21.7
22:15 999 29.5 828 24.45 0.1 32.3 66 -5.4 22.2
22:20 999 29.5 828 24.45 -0.1 31.8 67 -5.5 22.2
22:25 999 29.5 828 24.45 -0.2 31.6 67 -5.7 21.7
22:30 999 29.5 828 24.45 -0.2 31.6 66 -5.8 21.5
22:35 999 29.5 828 24.45 -0.2 31.7 68 -5.5 22.1
22:40 999 29.5 828 24.45 -0.4 31.3 66 -6 21.3
22:45 999 29.5 828 24.45 -0.2 31.6 64 -6.2 20.8
22:50 998 29.47 828 24.45 -0 31.9 64 -6 21.2
22:55 998 29.47 828 24.45 -0.2 31.6 66 -5.8 21.6
23:00 998 29.47 827 24.42 -0.3 31.4 65 -6.1 21
23:05 998 29.47 827 24.42 -0.2 31.6 66 -5.9 21.4
23:10 998 29.47 827 24.42 -0.4 31.3 67 -5.8 21.6
23:15 998 29.47 827 24.42 -0.3 31.5 64 -6.3 20.7
23:20 998 29.47 827 24.42 -0.1 31.9 63 -6.2 20.8
23:25 998 29.47 827 24.42 0.2 32.3 59 -6.9 19.5
23:30 998 29.47 827 24.42 0.5 32.8 60 -6.4 20.5
23:35 997 29.44 827 24.42 0.2 32.3 63 -6.1 21
23:40 997 29.44 827 24.42 -0 32 63 -6.3 20.7
23:45 997 29.44 826 24.39 0.1 32.1 61 -6.7 20
23:50 997 29.44 826 24.39 0.2 32.3 60 -6.7 20
23:55 997 29.44 826 24.39 0.4 32.7 59 -6.8 19.7
24:00 997 29.44 826 24.39 0.3 32.5 59 -6.8 19.7